createdAt,value
2022-08-14T00:01:24.126Z,100571.75
2022-08-14T00:03:50.939Z,100576.25
2022-08-14T00:06:25.578Z,100563.63
2022-08-14T00:08:58.970Z,100562.72
2022-08-14T00:11:31.203Z,100554.59
2022-08-14T00:13:59.425Z,100559.94
2022-08-14T00:16:41.199Z,100551.84
2022-08-14T00:19:19.214Z,100538.38
2022-08-14T00:21:50.391Z,100533.84
2022-08-14T00:24:23.127Z,100533.84
2022-08-14T00:26:55.991Z,100541.88
2022-08-14T00:29:25.105Z,100535.63
2022-08-14T00:31:56.039Z,100529.31
2022-08-14T00:34:37.951Z,100528.38
2022-08-14T00:37:11.272Z,100528.38
2022-08-14T00:39:39.544Z,100523.00
2022-08-14T00:42:07.665Z,100530.13
2022-08-14T00:44:48.759Z,100515.84
2022-08-14T00:47:17.300Z,100527.56
2022-08-14T00:49:45.489Z,100520.38
2022-08-14T00:52:17.627Z,100517.69
2022-08-14T00:54:46.775Z,100515.00
2022-08-14T00:57:13.749Z,100512.31
2022-08-14T00:59:41.267Z,100506.94
2022-08-14T01:02:09.341Z,100506.94
2022-08-14T01:04:38.431Z,100506.94
2022-08-14T01:07:21.719Z,100500.72
2022-08-14T01:10:01.838Z,100492.63
2022-08-14T01:12:30.123Z,100482.00
2022-08-14T01:14:59.300Z,100479.34
2022-08-14T01:17:49.931Z,100487.47
2022-08-14T01:20:39.971Z,100487.56
2022-08-14T01:23:15.773Z,100483.22
2022-08-14T01:25:44.142Z,100476.22
2022-08-14T01:28:12.600Z,100476.41
2022-08-14T01:30:59.555Z,100465.97
2022-08-14T01:33:29.145Z,100474.22
2022-08-14T01:36:05.562Z,100474.38
2022-08-14T01:38:48.964Z,100479.84
2022-08-14T01:41:23.072Z,100470.84
2022-08-14T01:44:02.407Z,100466.34
2022-08-14T01:46:33.552Z,100468.03
2022-08-14T01:49:10.026Z,100474.25
2022-08-14T01:51:37.804Z,100470.66
2022-08-14T01:54:14.224Z,100474.25
2022-08-14T01:56:44.803Z,100461.69
2022-08-14T01:59:18.626Z,100463.50
2022-08-14T02:01:58.340Z,100454.53
2022-08-14T02:04:55.638Z,100456.28
2022-08-14T02:07:34.330Z,100463.44
2022-08-14T02:10:08.730Z,100465.19
2022-08-14T02:12:40.921Z,100477.69
2022-08-14T02:15:11.385Z,100481.25
2022-08-14T02:17:38.525Z,100470.50
2022-08-14T02:20:08.562Z,100477.69
2022-08-14T02:22:35.512Z,100477.69
2022-08-14T02:25:14.567Z,100479.56
2022-08-14T02:28:25.585Z,100476.94
2022-08-14T02:30:33.740Z,100469.81
2022-08-14T02:33:01.208Z,100467.13
2022-08-14T02:35:32.973Z,100464.50
2022-08-14T02:37:59.941Z,100466.34
2022-08-14T02:40:32.515Z,100461.94
2022-08-14T02:43:03.983Z,100465.56
2022-08-14T02:45:38.405Z,100462.81
2022-08-14T02:49:03.089Z,100465.50
2022-08-14T02:51:00.726Z,100461.94
2022-08-14T02:53:31.509Z,100456.50
2022-08-14T02:56:02.571Z,100461.03
2022-08-14T02:58:31.360Z,100468.22
2022-08-14T03:00:59.359Z,100461.03
2022-08-14T03:03:27.745Z,100455.69
2022-08-14T03:05:58.806Z,100454.97
2022-08-14T03:08:31.784Z,100456.81
2022-08-14T03:11:06.601Z,100455.13
2022-08-14T03:13:35.685Z,100451.59
2022-08-14T03:16:03.830Z,100444.47
2022-08-14T03:18:42.452Z,100442.81
2022-08-14T03:21:13.410Z,100435.75
2022-08-14T03:23:42.320Z,100437.66
2022-08-14T03:26:18.271Z,100431.50
2022-08-14T03:28:51.450Z,100437.94
2022-08-14T03:31:22.498Z,100444.31
2022-08-14T03:33:54.263Z,100439.06
2022-08-14T03:37:38.473Z,100439.16
2022-08-14T03:39:15.691Z,100435.78
2022-08-14T03:41:50.870Z,100438.63
2022-08-14T03:45:18.843Z,100437.94
2022-08-14T03:47:04.756Z,100437.22
2022-08-14T03:49:32.155Z,100434.69
2022-08-14T03:52:07.807Z,100433.91
2022-08-14T03:54:52.470Z,100425.91
2022-08-14T03:57:20.238Z,100420.66
2022-08-14T03:59:49.570Z,100420.75
2022-08-14T04:02:32.316Z,100424.38
2022-08-14T04:05:11.584Z,100420.00
2022-08-14T04:07:49.625Z,100419.16
2022-08-14T04:10:32.371Z,100417.47
2022-08-14T04:13:03.691Z,100415.69
2022-08-14T04:15:32.085Z,100408.56
2022-08-14T04:18:19.038Z,100412.16
2022-08-14T04:20:54.765Z,100406.84
2022-08-14T04:23:29.574Z,100404.16
2022-08-14T04:26:01.397Z,100400.63
2022-08-14T04:29:07.932Z,100392.66
2022-08-14T04:31:16.190Z,100401.69
2022-08-14T04:33:42.835Z,100390.09
2022-08-14T04:36:16.054Z,100399.13
2022-08-14T04:39:02.953Z,100397.34
2022-08-14T04:41:48.245Z,100388.41
2022-08-14T04:44:35.870Z,100384.81
2022-08-14T04:47:21.990Z,100379.47
2022-08-14T04:49:57.265Z,100379.41
2022-08-14T04:52:25.102Z,100382.09
2022-08-14T04:54:52.130Z,100374.03
2022-08-14T04:57:21.237Z,100371.34
2022-08-14T04:59:49.380Z,100371.31
2022-08-14T05:02:18.039Z,100364.16
2022-08-14T05:04:45.559Z,100364.16
2022-08-14T05:07:53.928Z,100354.28
2022-08-14T05:10:13.162Z,100359.72
2022-08-14T05:13:24.283Z,100358.72
2022-08-14T05:15:29.439Z,100355.94
2022-08-14T05:18:16.791Z,100361.19
2022-08-14T05:21:57.671Z,100358.41
2022-08-14T05:23:37.578Z,100358.25
2022-08-14T05:26:13.260Z,100361.72
2022-08-14T05:28:46.349Z,100359.78
2022-08-14T05:31:20.373Z,100362.34
2022-08-14T05:33:56.462Z,100375.66
2022-08-14T05:36:23.948Z,100371.00
2022-08-14T05:38:51.051Z,100363.78
2022-08-14T05:41:20.298Z,100358.31
2022-08-14T05:43:48.984Z,100360.84
2022-08-14T05:46:22.621Z,100360.72
2022-08-14T05:48:56.129Z,100355.16
2022-08-14T05:51:25.164Z,100359.44
2022-08-14T05:54:00.182Z,100353.84
2022-08-14T05:56:36.888Z,100351.81
2022-08-14T05:59:05.499Z,100354.25
2022-08-14T06:01:32.200Z,100344.19
2022-08-14T06:03:58.882Z,100342.13
2022-08-14T06:06:25.372Z,100341.88
2022-08-14T06:08:52.874Z,100333.56
2022-08-14T06:11:27.932Z,100330.63
2022-08-14T06:13:58.673Z,100325.94
2022-08-14T06:16:25.332Z,100330.16
2022-08-14T06:18:52.866Z,100328.06
2022-08-14T06:21:21.721Z,100327.88
2022-08-14T06:23:49.276Z,100324.97
2022-08-14T06:26:15.989Z,100333.69
2022-08-14T06:28:46.957Z,100325.38
2022-08-14T06:31:13.451Z,100319.72
2022-08-14T06:35:11.182Z,100323.09
2022-08-14T06:36:27.115Z,100313.84
2022-08-14T06:38:54.489Z,100316.31
2022-08-14T06:41:57.180Z,100321.44
2022-08-14T06:44:09.675Z,100313.97
2022-08-14T06:46:37.759Z,100312.81
2022-08-14T06:49:05.357Z,100302.66
2022-08-14T06:51:38.647Z,100298.84
2022-08-14T06:54:11.329Z,100293.16
2022-08-14T06:56:38.673Z,100299.22
2022-08-14T06:59:05.851Z,100302.47
2022-08-14T07:01:51.499Z,100295.81
2022-08-14T07:04:41.489Z,100293.75
2022-08-14T07:07:08.019Z,100301.53
2022-08-14T07:09:44.112Z,100296.13
2022-08-14T07:12:52.200Z,100294.13
2022-08-14T07:15:06.172Z,100291.34
2022-08-14T07:17:34.474Z,100292.25
2022-08-14T07:20:04.655Z,100284.97
2022-08-14T07:22:49.847Z,100286.66
2022-08-14T07:25:20.431Z,100290.00
2022-08-14T07:27:46.935Z,100282.38
2022-08-14T07:30:34.781Z,100283.69
2022-08-14T07:33:00.976Z,100283.03
2022-08-14T07:35:37.406Z,100293.25
2022-08-14T07:38:18.470Z,100288.13
2022-08-14T07:40:48.258Z,100292.91
2022-08-14T07:43:20.472Z,100301.28
2022-08-14T07:45:47.962Z,100291.66
2022-08-14T07:48:17.967Z,100295.59
2022-08-14T07:50:51.884Z,100298.72
2022-08-14T07:53:19.394Z,100291.22
2022-08-14T07:56:00.434Z,100291.81
2022-08-14T07:58:38.991Z,100291.44
2022-08-14T08:01:19.836Z,100291.16
2022-08-14T08:03:51.821Z,100290.94
2022-08-14T08:06:26.013Z,100287.06
2022-08-14T08:09:01.245Z,100291.22
2022-08-14T08:11:34.873Z,100300.69
2022-08-14T08:14:17.255Z,100295.91
2022-08-14T08:16:47.393Z,100299.09
2022-08-14T08:19:19.202Z,100293.22
2022-08-14T08:21:47.076Z,100294.53
2022-08-14T08:24:19.910Z,100293.91
2022-08-14T08:26:48.144Z,100290.66
2022-08-14T08:29:28.226Z,100290.25
2022-08-14T08:32:01.657Z,100296.41
2022-08-14T08:34:32.015Z,100289.81
2022-08-14T08:36:58.617Z,100287.66
2022-08-14T08:39:30.786Z,100298.25
2022-08-14T08:42:11.577Z,100292.44
2022-08-14T08:44:41.014Z,100286.69
2022-08-14T08:47:09.981Z,100290.81
2022-08-14T08:49:42.963Z,100276.25
2022-08-14T08:52:25.071Z,100283.25
2022-08-14T08:54:55.802Z,100275.56
2022-08-14T08:57:22.351Z,100271.56
2022-08-14T08:59:55.383Z,100267.66
2022-08-14T09:02:26.137Z,100268.16
2022-08-14T09:05:02.446Z,100266.59
2022-08-14T09:07:28.964Z,100264.22
2022-08-14T09:09:59.918Z,100274.22
2022-08-14T09:12:31.429Z,100264.53
2022-08-14T09:15:01.196Z,100257.41
2022-08-14T09:17:28.265Z,100248.66
2022-08-14T09:19:55.678Z,100245.16
2022-08-14T09:22:36.202Z,100247.25
2022-08-14T09:25:06.874Z,100244.84
2022-08-14T09:27:36.655Z,100243.06
2022-08-14T09:30:31.161Z,100251.47
2022-08-14T09:33:09.073Z,100234.41
2022-08-14T09:35:58.910Z,100236.81
2022-08-14T09:38:47.135Z,100229.66
2022-08-14T09:42:21.586Z,100228.09
2022-08-14T09:45:08.517Z,100221.97
2022-08-14T09:47:47.173Z,100229.53
2022-08-14T09:50:29.945Z,100219.72
2022-08-14T09:52:59.572Z,100220.91
2022-08-14T09:55:28.227Z,100223.63
2022-08-14T09:58:22.554Z,100220.03
2022-08-14T10:00:54.318Z,100215.47
2022-08-14T10:03:34.408Z,100201.00
2022-08-14T10:06:19.371Z,100206.94
2022-08-14T10:08:51.754Z,100200.56
2022-08-14T10:11:23.037Z,100198.22
2022-08-14T10:13:54.337Z,100197.25
2022-08-14T10:16:33.294Z,100191.81
2022-08-14T10:19:09.525Z,100187.84
2022-08-14T10:21:58.753Z,100183.47
2022-08-14T10:24:36.518Z,100196.09
2022-08-14T10:27:03.736Z,100179.69
2022-08-14T10:29:38.816Z,100172.22
2022-08-14T10:32:17.852Z,100166.69
2022-08-14T10:35:10.901Z,100173.47
2022-08-14T10:37:50.346Z,100166.88
2022-08-14T10:40:44.303Z,100175.72
2022-08-14T10:43:26.007Z,100165.50
2022-08-14T10:46:21.467Z,100169.00
2022-08-14T10:49:02.667Z,100170.66
2022-08-14T10:51:36.414Z,100169.56
2022-08-14T10:54:26.138Z,100173.16
2022-08-14T10:57:11.391Z,100160.81
2022-08-14T10:59:55.552Z,100154.34
2022-08-14T11:02:44.908Z,100155.03
2022-08-14T11:05:19.153Z,100148.59
2022-08-14T11:08:00.922Z,100145.03
2022-08-14T11:10:50.369Z,100143.69
2022-08-14T11:13:26.640Z,100143.59
2022-08-14T11:15:57.472Z,100135.31
2022-08-14T11:18:32.329Z,100136.97
2022-08-14T11:21:06.796Z,100132.84
2022-08-14T11:23:38.121Z,100131.09
2022-08-14T11:26:08.302Z,100139.16
2022-08-14T11:28:46.862Z,100142.63
2022-08-14T11:31:19.504Z,100134.22
2022-08-14T11:33:57.575Z,100119.81
2022-08-14T11:36:56.852Z,100125.47
2022-08-14T11:39:34.802Z,100120.63
2022-08-14T11:42:57.102Z,100116.97
2022-08-14T11:45:00.214Z,100113.13
2022-08-14T11:47:27.377Z,100107.66
2022-08-14T11:50:13.322Z,100105.81
2022-08-14T11:52:40.647Z,100119.44
2022-08-14T11:55:13.568Z,100115.63
2022-08-14T11:57:42.291Z,100107.03
2022-08-14T12:00:31.715Z,100095.53
2022-08-14T12:03:04.550Z,100090.28
2022-08-14T12:05:42.230Z,100096.06
2022-08-14T12:08:11.959Z,100090.75
2022-08-14T12:10:43.275Z,100089.16
2022-08-14T12:13:12.088Z,100084.16
2022-08-14T12:15:44.614Z,100083.16
2022-08-14T12:18:19.944Z,100074.69
2022-08-14T12:20:52.715Z,100068.44
2022-08-14T12:23:26.034Z,100063.94
2022-08-14T12:26:31.568Z,100066.56
2022-08-14T12:29:16.896Z,100061.97
2022-08-14T12:31:47.283Z,100063.47
2022-08-14T12:34:20.405Z,100061.44
2022-08-14T12:36:49.770Z,100050.09
2022-08-14T12:39:20.954Z,100046.91
2022-08-14T12:42:01.463Z,100049.16
2022-08-14T12:44:44.019Z,100037.94
2022-08-14T12:47:16.688Z,100034.59
2022-08-14T12:49:52.419Z,100033.63
2022-08-14T12:52:45.383Z,100019.84
2022-08-14T12:55:32.789Z,100023.72
2022-08-14T12:58:35.379Z,100024.97
2022-08-14T13:01:17.029Z,100015.31
2022-08-14T13:03:48.168Z,100021.63
2022-08-14T13:06:19.213Z,100009.97
2022-08-14T13:08:53.079Z,100001.19
2022-08-14T13:11:23.836Z,100010.19
2022-08-14T13:13:56.579Z,100002.75
2022-08-14T13:16:38.210Z,100000.75
2022-08-14T13:19:16.107Z,99987.56
2022-08-14T13:21:58.992Z,99995.44
2022-08-14T13:24:34.466Z,99980.91
2022-08-14T13:27:04.605Z,99974.06
2022-08-14T13:29:37.629Z,99979.16
2022-08-14T13:32:09.153Z,99971.72
2022-08-14T13:34:37.556Z,99966.59
2022-08-14T13:37:07.259Z,99961.13
2022-08-14T13:39:36.321Z,99953.91
2022-08-14T13:42:08.770Z,99946.72
2022-08-14T13:44:45.379Z,99946.34
2022-08-14T13:47:14.673Z,99944.44
2022-08-14T13:49:57.410Z,99940.66
2022-08-14T13:52:52.173Z,99944.00
2022-08-14T13:55:14.029Z,99936.47
2022-08-14T13:57:49.913Z,99933.69
2022-08-14T14:00:35.653Z,99923.56
2022-08-14T14:03:05.982Z,99924.84
2022-08-14T14:05:52.636Z,99920.59
2022-08-14T14:08:47.026Z,99900.69
2022-08-14T14:11:09.661Z,99898.31
2022-08-14T14:13:44.714Z,99891.97
2022-08-14T14:16:15.607Z,99894.63
2022-08-14T14:18:52.571Z,99887.50
2022-08-14T14:21:21.486Z,99879.44
2022-08-14T14:23:49.223Z,99889.13
2022-08-14T14:26:23.269Z,99891.00
2022-08-14T14:28:55.285Z,99883.78
2022-08-14T14:31:29.999Z,99872.25
2022-08-14T14:34:00.418Z,99873.81
2022-08-14T14:36:32.768Z,99870.38
2022-08-14T14:39:05.425Z,99872.16
2022-08-14T14:41:44.118Z,99862.41
2022-08-14T14:44:15.590Z,99864.16
2022-08-14T14:46:50.647Z,99868.78
2022-08-14T14:49:31.688Z,99865.19
2022-08-14T14:52:16.830Z,99866.38
2022-08-14T14:54:50.358Z,99866.34
2022-08-14T14:57:19.210Z,99864.03
2022-08-14T14:59:46.076Z,99866.16
2022-08-14T15:02:32.361Z,99867.91
2022-08-14T15:05:00.415Z,99872.13
2022-08-14T15:07:27.188Z,99866.47
2022-08-14T15:09:56.523Z,99857.03
2022-08-14T15:12:55.524Z,99859.22
2022-08-14T15:15:10.905Z,99855.34
2022-08-14T15:17:40.928Z,99851.72
2022-08-14T15:20:17.330Z,99847.94
2022-08-14T15:22:57.384Z,99845.31
2022-08-14T15:25:24.289Z,99846.78
2022-08-14T15:27:51.243Z,99846.94
2022-08-14T15:30:23.770Z,99842.50
2022-08-14T15:32:51.702Z,99844.25
2022-08-14T15:35:22.300Z,99841.22
2022-08-14T15:37:55.995Z,99839.34
2022-08-14T15:40:23.177Z,99831.41
2022-08-14T15:42:49.818Z,99827.47
2022-08-14T15:45:17.271Z,99819.97
2022-08-14T15:47:44.098Z,99822.56
2022-08-14T15:50:11.525Z,99811.59
2022-08-14T15:52:38.525Z,99812.38
2022-08-14T15:55:14.742Z,99805.91
2022-08-14T15:58:02.087Z,99813.03
2022-08-14T16:00:50.305Z,99807.53
2022-08-14T16:03:27.934Z,99804.06
2022-08-14T16:06:05.670Z,99797.41
2022-08-14T16:08:32.673Z,99800.56
2022-08-14T16:11:01.880Z,99796.47
2022-08-14T16:13:42.960Z,99800.50
2022-08-14T16:16:47.094Z,99796.34
2022-08-14T16:19:09.986Z,99787.25
2022-08-14T16:21:40.579Z,99776.63
2022-08-14T16:24:27.635Z,99777.66
2022-08-14T16:27:00.621Z,99773.47
2022-08-14T16:29:30.310Z,99779.22
2022-08-14T16:32:00.262Z,99780.25
2022-08-14T16:34:45.031Z,99769.72
2022-08-14T16:37:18.956Z,99767.16
2022-08-14T16:39:48.677Z,99762.53
2022-08-14T16:43:02.913Z,99766.81
2022-08-14T16:45:02.914Z,99772.88
2022-08-14T16:47:34.813Z,99766.34
2022-08-14T16:50:09.226Z,99771.72
2022-08-14T16:52:44.285Z,99768.06
2022-08-14T16:55:13.920Z,99772.28
2022-08-14T16:57:54.470Z,99772.50
2022-08-14T17:00:32.692Z,99758.94
2022-08-14T17:03:08.672Z,99766.34
2022-08-14T17:05:41.655Z,99765.56
2022-08-14T17:08:32.310Z,99755.53
2022-08-14T17:11:10.936Z,99759.63
2022-08-14T17:13:59.667Z,99750.19
2022-08-14T17:16:36.953Z,99742.91
2022-08-14T17:19:13.677Z,99746.31
2022-08-14T17:21:41.998Z,99738.16
2022-08-14T17:24:56.698Z,99734.81
2022-08-14T17:27:00.024Z,99728.50
2022-08-14T17:29:33.210Z,99732.09
2022-08-14T17:32:22.505Z,99724.59
2022-08-14T17:34:57.595Z,99724.16
2022-08-14T17:37:30.530Z,99718.28
2022-08-14T17:40:02.111Z,99720.69
2022-08-14T17:42:45.188Z,99722.13
2022-08-14T17:45:42.847Z,99714.25
2022-08-14T17:49:14.997Z,99724.56
2022-08-14T17:51:23.214Z,99720.78
2022-08-14T17:54:01.365Z,99721.56
2022-08-14T17:56:30.958Z,99725.94
2022-08-14T17:59:06.189Z,99723.97
2022-08-14T18:01:40.710Z,99717.25
2022-08-14T18:04:28.345Z,99724.91
2022-08-14T18:07:16.249Z,99728.84
2022-08-14T18:09:56.187Z,99721.84
2022-08-14T18:12:32.916Z,99727.50
2022-08-14T18:15:16.227Z,99732.28
2022-08-14T18:17:52.643Z,99725.09
2022-08-14T18:21:40.115Z,99723.19
2022-08-14T18:23:08.109Z,99724.19
2022-08-14T18:25:45.982Z,99718.81
2022-08-14T18:28:16.043Z,99714.19
2022-08-14T18:30:58.594Z,99712.38
2022-08-14T18:33:26.410Z,99711.44
2022-08-14T18:35:58.577Z,99708.59
2022-08-14T18:38:59.739Z,99713.22
2022-08-14T18:41:37.176Z,99710.63
2022-08-14T18:44:10.968Z,99707.81
2022-08-14T18:47:09.909Z,99708.78
2022-08-14T18:49:53.148Z,99719.53
2022-08-14T18:52:23.004Z,99718.34
2022-08-14T18:54:59.199Z,99720.94
2022-08-14T18:57:27.136Z,99726.25
2022-08-14T19:00:39.991Z,99719.75
2022-08-14T19:03:08.873Z,99721.31
2022-08-14T19:05:47.037Z,99716.50
2022-08-14T19:08:25.312Z,99728.88
2022-08-14T19:10:55.602Z,99733.09
2022-08-14T19:13:48.169Z,99731.00
2022-08-14T19:16:23.604Z,99737.81
2022-08-14T19:19:00.170Z,99740.16
2022-08-14T19:21:40.013Z,99739.81
2022-08-14T19:24:27.797Z,99733.97
2022-08-14T19:27:16.443Z,99740.88
2022-08-14T19:29:47.752Z,99735.72
2022-08-14T19:32:36.666Z,99738.88
2022-08-14T19:35:14.938Z,99740.88
2022-08-14T19:37:52.540Z,99740.22
2022-08-14T19:40:42.892Z,99740.53
2022-08-14T19:43:10.556Z,99738.09
2022-08-14T19:45:38.812Z,99736.56
2022-08-14T19:48:15.998Z,99735.00
2022-08-14T19:50:46.074Z,99740.66
2022-08-14T19:53:17.247Z,99729.03
2022-08-14T19:55:58.626Z,99731.91
2022-08-14T19:58:54.694Z,99733.84
2022-08-14T20:01:25.977Z,99738.41
2022-08-14T20:03:59.874Z,99734.16
2022-08-14T20:06:35.530Z,99737.03
2022-08-14T20:11:04.708Z,99731.78
2022-08-14T20:12:04.620Z,99740.13
2022-08-14T20:14:36.136Z,99736.72
2022-08-14T20:17:06.714Z,99734.22
2022-08-14T20:19:37.564Z,99737.09
2022-08-14T20:22:36.565Z,99735.56
2022-08-14T20:24:54.184Z,99727.72
2022-08-14T20:27:21.320Z,99732.38
2022-08-14T20:30:32.830Z,99738.94
2022-08-14T20:33:11.806Z,99741.84
2022-08-14T20:35:38.293Z,99727.63
2022-08-14T20:38:31.721Z,99738.66
2022-08-14T20:41:01.050Z,99733.41
2022-08-14T20:43:52.959Z,99732.63
2022-08-14T20:46:30.148Z,99730.13
2022-08-14T20:49:01.675Z,99732.03
2022-08-14T20:51:43.508Z,99727.78
2022-08-14T20:54:21.565Z,99725.25
2022-08-14T20:57:17.979Z,99716.34
2022-08-14T20:59:50.364Z,99724.69
2022-08-14T21:02:29.560Z,99716.72
2022-08-14T21:05:04.628Z,99715.16
2022-08-14T21:07:50.894Z,99713.59
2022-08-14T21:10:33.302Z,99716.50
2022-08-14T21:13:26.521Z,99713.94
2022-08-14T21:15:57.782Z,99714.16
2022-08-14T21:18:35.252Z,99708.94
2022-08-14T21:21:19.161Z,99710.94
2022-08-14T21:23:55.136Z,99710.25
2022-08-14T21:26:51.129Z,99704.22
2022-08-14T21:29:11.986Z,99702.69
2022-08-14T21:31:40.504Z,99707.41
2022-08-14T21:34:31.197Z,99704.97
2022-08-14T21:36:54.472Z,99701.56
2022-08-14T21:39:24.726Z,99706.28
2022-08-14T21:41:58.880Z,99704.72
2022-08-14T21:44:42.799Z,99702.22
2022-08-14T21:47:13.030Z,99701.63
2022-08-14T21:49:40.241Z,99695.53
2022-08-14T21:52:50.352Z,99704.81
2022-08-14T21:55:09.210Z,99694.34
2022-08-14T21:58:44.691Z,99690.97
2022-08-14T22:00:35.132Z,99692.00
2022-08-14T22:03:05.421Z,99692.19
2022-08-14T22:05:32.339Z,99692.38
2022-08-14T22:07:59.412Z,99698.91
2022-08-14T22:10:29.901Z,99694.63
2022-08-14T22:13:01.217Z,99698.53
2022-08-14T22:15:30.281Z,99695.16
2022-08-14T22:17:58.866Z,99694.53
2022-08-14T22:20:28.422Z,99688.44
2022-08-14T22:22:57.424Z,99695.75
2022-08-14T22:25:33.932Z,99694.03
2022-08-14T22:28:05.971Z,99696.78
2022-08-14T22:30:33.794Z,99696.00
2022-08-14T22:33:00.626Z,99706.91
2022-08-14T22:35:28.118Z,99695.41
2022-08-14T22:38:34.976Z,99693.81
2022-08-14T22:41:06.530Z,99689.38
2022-08-14T22:43:31.749Z,99683.19
2022-08-14T22:46:02.166Z,99682.38
2022-08-14T22:48:29.663Z,99673.41
2022-08-14T22:50:56.505Z,99668.00
2022-08-14T22:53:24.134Z,99672.47
2022-08-14T22:55:56.642Z,99662.53
2022-08-14T22:58:30.236Z,99666.97
2022-08-14T23:01:01.084Z,99662.47
2022-08-14T23:03:28.751Z,99663.34
2022-08-14T23:05:55.824Z,99656.97
2022-08-14T23:09:00.129Z,99650.59
2022-08-14T23:11:10.494Z,99639.78
2022-08-14T23:13:43.522Z,99643.28
2022-08-14T23:16:19.937Z,99641.53
2022-08-14T23:18:53.804Z,99639.78
2022-08-14T23:21:24.155Z,99642.47
2022-08-14T23:23:55.001Z,99642.56
2022-08-14T23:26:47.701Z,99644.44
2022-08-14T23:29:11.471Z,99638.22
2022-08-14T23:31:38.402Z,99629.47
2022-08-14T23:34:09.257Z,99633.31
2022-08-14T23:36:53.331Z,99630.75
2022-08-14T23:39:29.579Z,99631.91
2022-08-14T23:42:02.368Z,99623.97
2022-08-14T23:44:32.189Z,99618.75
2022-08-14T23:47:05.599Z,99616.28
2022-08-14T23:50:00.055Z,99618.28
2022-08-14T23:53:06.039Z,99611.16
2022-08-14T23:55:11.675Z,99605.94
2022-08-14T23:57:44.083Z,99612.28
